Aérodrome :
LOGIN :

S'inscrire | Disclaimer

   EN    FR    IT 

 










Légende :    VFR   VFR Marginal   IFR   IFR Intensif   IFR Très Intensif
Visi : 
Plafond : 
>= 8 km
>= 3000ft
5 à 8 km
1000 à 3000 ft
1500m à 5 km
500 à 1000 ft
800 à 1500m
200 à 500 ft
< 800m
< 200 ft
Symboles :   Orages  Brouillard  Fortes neiges  Fortes précipitations  Vent > 20 kt
SIGMETs :   Divers  Orages  Givrage  Turbulence  Onde Orograph.  Cendres Volcan.






- Altitude de l'aérodrome : 788 ft
- Code IATA : DCM


LFCK - Castres-Mazamet

DERNIER METAR :
  • 221030Z AUTO 26003KT 200V330 9999 BKN033 BKN056 20/12 Q1016 BECMG SCT035 SCT045TCU

METARs EXPIRÉS :
  • 221000Z AUTO VRB03KT 9999 FEW036 19/12 Q1016 NOSIG
  • 220930Z AUTO 25004KT 190V320 9999 FEW022 SCT042 BKN052 19/13 Q1016 NOSIG
  • 220900Z AUTO 24004KT 200V330 9999 FEW022 SCT027 BKN043 18/13 Q1016 NOSIG
  • 220830Z AUTO VRB02KT 9999 FEW019 BKN044 BKN050 18/13 Q1016 NOSIG
  • 220800Z AUTO VRB03KT 9999 BKN016 BKN028 BKN034 17/14 Q1016 TEMPO BKN012 BKN030

TAF TAF LFCK
Valide du 22 à 09h jusqu'au 22 à 18h UTC


220800Z 2209/2218 28006KT 9999 SCT022 BKN035
BECMG 2212/2214 SCT035 SCT045TCU
PROB40
TEMPO 2215/2218 29015G25KT 4000 SHRA SCT050CB



MET'MAP, la Météo Aéronautique d'un coup d'oeil ! - Copyright ORBIFLY Décembre 2007 - Disclaimer

ORBIFLY MET'MAP TEAM :

Programmation & Développement : Alexandra Zaïnal
Sur une idée originale de : Baudouin d'Aumeries
Assistance à la programmation : Marc-Olivier Méhu
Soutien technique & logistique : Manuel Goepfert

Contact : metmap@orbifly.com




SOURCES & CREDITS :

   NOAA